createdAt,value
2023-02-06T00:00:16.337Z,101592.58
2023-02-06T00:01:19.666Z,101594.31
2023-02-06T00:02:21.683Z,101592.45
2023-02-06T00:03:23.838Z,101598.44
2023-02-06T00:04:26.242Z,101598.50
2023-02-06T00:05:28.285Z,101596.77
2023-02-06T00:06:31.584Z,101596.77
2023-02-06T00:07:33.715Z,101597.37
2023-02-06T00:08:36.146Z,101586.23
2023-02-06T00:09:38.300Z,101585.36
2023-02-06T00:10:40.403Z,101590.52
2023-02-06T00:11:42.458Z,101584.64
2023-02-06T00:12:45.351Z,101594.25
2023-02-06T00:13:47.910Z,101586.33
2023-02-06T00:14:49.991Z,101577.69
2023-02-06T00:15:51.924Z,101587.33
2023-02-06T00:16:54.185Z,101590.48
2023-02-06T00:17:56.097Z,101584.64
2023-02-06T00:18:59.224Z,101588.06
2023-02-06T00:20:02.941Z,101584.56
2023-02-06T00:21:04.940Z,101591.55
2023-02-06T00:22:06.871Z,101589.79
2023-02-06T00:23:08.863Z,101579.58
2023-02-06T00:24:10.772Z,101592.61
2023-02-06T00:25:12.785Z,101590.15
2023-02-06T00:26:16.867Z,101592.68
2023-02-06T00:27:18.779Z,101585.77
2023-02-06T00:28:20.782Z,101594.18
2023-02-06T00:29:22.996Z,101590.95
2023-02-06T00:30:25.594Z,101597.93
2023-02-06T00:31:27.649Z,101594.50
2023-02-06T00:32:29.708Z,101594.44
2023-02-06T00:33:32.508Z,101592.55
2023-02-06T00:34:34.545Z,101594.18
2023-02-06T00:35:36.789Z,101593.45
2023-02-06T00:36:39.789Z,101589.13
2023-02-06T00:37:41.796Z,101584.00
2023-02-06T00:38:43.877Z,101589.19
2023-02-06T00:39:45.946Z,101585.73
2023-02-06T00:40:47.947Z,101583.80
2023-02-06T00:41:49.938Z,101589.75
2023-02-06T00:42:51.923Z,101591.69
2023-02-06T00:43:53.796Z,101590.95
2023-02-06T00:44:55.697Z,101589.13
2023-02-06T00:45:58.182Z,101590.95
2023-02-06T00:47:00.900Z,101593.52
2023-02-06T00:48:03.295Z,101585.77
2023-02-06T00:49:05.179Z,101587.62
2023-02-06T00:50:09.190Z,101592.64
2023-02-06T00:51:11.157Z,101586.36
2023-02-06T00:52:13.086Z,101583.73
2023-02-06T00:53:15.373Z,101584.77
2023-02-06T00:54:17.723Z,101575.98
2023-02-06T00:55:21.309Z,101587.42
2023-02-06T00:56:23.729Z,101581.41
2023-02-06T00:57:25.593Z,101583.16
2023-02-06T00:58:27.487Z,101582.23
2023-02-06T00:59:29.496Z,101582.30
2023-02-06T01:00:31.785Z,101584.06
2023-02-06T01:01:34.545Z,101578.81
2023-02-06T01:02:37.161Z,101580.57
2023-02-06T01:03:39.158Z,101585.53
2023-02-06T01:04:41.157Z,101588.03
2023-02-06T01:05:43.186Z,101588.12
2023-02-06T01:06:45.151Z,101585.63
2023-02-06T01:07:47.126Z,101590.82
2023-02-06T01:08:49.084Z,101583.77
2023-02-06T01:09:51.060Z,101591.62
2023-02-06T01:10:53.831Z,101584.77
2023-02-06T01:11:57.039Z,101591.69
2023-02-06T01:12:59.540Z,101591.65
2023-02-06T01:14:03.655Z,101589.86
2023-02-06T01:15:08.572Z,101589.89
2023-02-06T01:16:14.930Z,101595.20
2023-02-06T01:17:17.338Z,101585.70
2023-02-06T01:18:19.311Z,101593.48
2023-02-06T01:19:21.179Z,101590.72
2023-02-06T01:20:23.847Z,101592.31
2023-02-06T01:21:25.814Z,101591.52
2023-02-06T01:22:27.990Z,101593.37
2023-02-06T01:23:29.898Z,101595.11
2023-02-06T01:24:32.555Z,101588.98
2023-02-06T01:25:36.767Z,101589.06
2023-02-06T01:26:39.307Z,101581.38
2023-02-06T01:27:41.156Z,101587.36
2023-02-06T01:28:45.464Z,101586.49
2023-02-06T01:29:47.718Z,101583.73
2023-02-06T01:30:49.931Z,101588.86
2023-02-06T01:31:51.976Z,101589.02
2023-02-06T01:32:53.835Z,101581.27
2023-02-06T01:33:58.282Z,101583.84
2023-02-06T01:35:00.201Z,101584.83
2023-02-06T01:36:04.614Z,101586.43
2023-02-06T01:37:06.532Z,101579.58
2023-02-06T01:38:08.518Z,101575.05
2023-02-06T01:39:10.604Z,101588.16
2023-02-06T01:40:15.385Z,101585.63
2023-02-06T01:41:20.504Z,101581.24
2023-02-06T01:42:24.324Z,101586.49
2023-02-06T01:43:35.797Z,101581.41
2023-02-06T01:44:37.872Z,101582.07
2023-02-06T01:45:43.746Z,101581.30
2023-02-06T01:46:47.869Z,101582.11
2023-02-06T01:47:53.621Z,101582.01
2023-02-06T01:48:56.352Z,101583.88
2023-02-06T01:49:58.251Z,101586.43
2023-02-06T01:51:03.165Z,101576.82
2023-02-06T01:52:09.002Z,101587.16
2023-02-06T01:53:14.365Z,101582.04
2023-02-06T01:54:16.975Z,101593.28
2023-02-06T01:55:19.356Z,101585.30
2023-02-06T01:56:23.018Z,101584.37
2023-02-06T01:57:26.429Z,101587.99
2023-02-06T01:59:43.750Z,101585.56
2023-02-06T02:00:47.092Z,101595.87
2023-02-06T02:01:49.398Z,101593.19
2023-02-06T02:02:52.450Z,101594.95
2023-02-06T02:03:57.518Z,101592.38
2023-02-06T02:05:02.449Z,101597.37
2023-02-06T02:06:09.101Z,101599.23
2023-02-06T02:07:30.159Z,101602.63
2023-02-06T02:08:38.427Z,101595.87
2023-02-06T02:09:41.961Z,101593.28
2023-02-06T02:10:45.032Z,101606.98
2023-02-06T02:11:46.929Z,101606.98
2023-02-06T02:12:49.248Z,101604.39
2023-02-06T02:13:52.853Z,101602.66
2023-02-06T02:14:56.467Z,101614.80
2023-02-06T02:16:04.726Z,101613.83
2023-02-06T02:17:28.770Z,101616.42
2023-02-06T02:18:57.367Z,101620.67
2023-02-06T02:20:23.103Z,101627.59
2023-02-06T02:21:45.719Z,101624.14
2023-02-06T02:23:06.103Z,101618.19
2023-02-06T02:24:14.929Z,101622.41
2023-02-06T02:27:03.175Z,101619.13
2023-02-06T02:28:28.604Z,101614.55
2023-02-06T02:29:46.586Z,101616.69
2023-02-06T02:31:04.355Z,101626.41
2023-02-06T02:32:22.356Z,101618.62
2023-02-06T02:33:58.850Z,101621.98
2023-02-06T02:36:39.618Z,101614.42
2023-02-06T02:37:47.955Z,101622.63
2023-02-06T02:39:00.490Z,101616.69
2023-02-06T02:40:27.532Z,101620.79
2023-02-06T02:41:42.280Z,101625.14
2023-02-06T02:42:48.102Z,101627.70
2023-02-06T02:43:56.532Z,101625.90
2023-02-06T02:45:17.506Z,101635.22
2023-02-06T02:46:39.349Z,101631.87
2023-02-06T02:47:57.597Z,101634.46
2023-02-06T02:49:03.397Z,101629.35
2023-02-06T02:50:07.207Z,101630.22
2023-02-06T02:51:10.803Z,101632.95
2023-02-06T02:52:14.636Z,101635.48
2023-02-06T02:53:16.833Z,101634.61
2023-02-06T02:54:19.294Z,101634.31
2023-02-06T02:55:22.816Z,101635.44
2023-02-06T02:56:26.035Z,101640.36
2023-02-06T02:57:30.926Z,101642.98
2023-02-06T02:58:34.584Z,101635.41
2023-02-06T02:59:40.227Z,101629.05
2023-02-06T03:00:46.234Z,101639.49
2023-02-06T03:02:01.221Z,101635.96
2023-02-06T03:03:06.378Z,101637.50
2023-02-06T03:04:12.148Z,101641.89
2023-02-06T03:05:17.665Z,101638.62
2023-02-06T03:06:29.447Z,101638.52
2023-02-06T03:08:54.557Z,101638.67
2023-02-06T03:10:19.024Z,101647.23
2023-02-06T03:11:21.566Z,101641.30
2023-02-06T03:12:45.400Z,101642.91
2023-02-06T03:14:08.151Z,101648.09
2023-02-06T03:15:13.894Z,101637.88
2023-02-06T03:16:26.341Z,101648.09
2023-02-06T03:18:58.385Z,101644.19
2023-02-06T03:20:03.722Z,101641.30
2023-02-06T03:21:09.112Z,101641.27
2023-02-06T03:22:12.563Z,101649.00
2023-02-06T03:23:18.260Z,101647.45
2023-02-06T03:24:24.383Z,101646.64
2023-02-06T03:26:43.259Z,101636.27
2023-02-06T03:27:47.044Z,101639.42
2023-02-06T03:28:52.467Z,101644.64
2023-02-06T03:29:57.279Z,101646.48
2023-02-06T03:31:04.072Z,101643.14
2023-02-06T03:32:12.548Z,101642.16
2023-02-06T03:33:18.600Z,101646.48
2023-02-06T03:34:32.215Z,101652.56
2023-02-06T03:35:37.284Z,101644.75
2023-02-06T03:36:40.034Z,101652.41
2023-02-06T03:37:42.618Z,101657.63
2023-02-06T03:38:47.470Z,101654.97
2023-02-06T03:39:49.586Z,101656.06
2023-02-06T03:40:54.389Z,101662.19
2023-02-06T03:41:58.041Z,101663.09
2023-02-06T03:43:03.725Z,101648.52
2023-02-06T03:44:09.350Z,101655.98
2023-02-06T03:45:18.105Z,101649.94
2023-02-06T03:46:22.856Z,101661.96
2023-02-06T03:47:25.969Z,101669.06
2023-02-06T03:48:37.385Z,101657.78
2023-02-06T03:49:40.887Z,101662.03
2023-02-06T03:50:45.425Z,101668.27
2023-02-06T03:53:04.357Z,101656.47
2023-02-06T03:54:08.551Z,101664.86
2023-02-06T03:55:14.059Z,101665.88
2023-02-06T03:56:35.135Z,101664.74
2023-02-06T03:57:38.204Z,101665.76
2023-02-06T03:58:40.357Z,101665.01
2023-02-06T03:59:42.251Z,101661.40
2023-02-06T04:00:45.948Z,101657.16
2023-02-06T04:01:52.469Z,101672.55
2023-02-06T04:02:56.016Z,101660.37
2023-02-06T04:03:58.528Z,101660.37
2023-02-06T04:05:00.602Z,101663.87
2023-02-06T04:06:03.222Z,101663.24
2023-02-06T04:07:11.656Z,101660.53
2023-02-06T04:08:13.630Z,101662.15
2023-02-06T04:09:15.513Z,101664.11
2023-02-06T04:10:18.040Z,101657.86
2023-02-06T04:11:21.241Z,101666.66
2023-02-06T04:12:24.111Z,101665.01
2023-02-06T04:13:26.042Z,101672.44
2023-02-06T04:14:27.925Z,101662.08
2023-02-06T04:15:30.020Z,101663.80
2023-02-06T04:16:32.500Z,101669.69
2023-02-06T04:17:57.489Z,101669.73
2023-02-06T04:18:40.298Z,101671.58
2023-02-06T04:19:42.389Z,101671.61
2023-02-06T04:20:44.621Z,101684.77
2023-02-06T04:21:46.755Z,101678.60
2023-02-06T04:22:49.855Z,101680.38
2023-02-06T04:23:51.774Z,101683.78
2023-02-06T04:24:53.766Z,101679.50
2023-02-06T04:25:55.668Z,101680.41
2023-02-06T04:26:59.106Z,101681.39
2023-02-06T04:28:01.149Z,101681.54
2023-02-06T04:29:04.952Z,101679.66
2023-02-06T04:30:08.791Z,101681.47
2023-02-06T04:31:11.280Z,101682.44
2023-02-06T04:32:14.506Z,101685.82
2023-02-06T04:33:16.742Z,101679.66
2023-02-06T04:34:18.652Z,101685.55
2023-02-06T04:35:20.796Z,101684.80
2023-02-06T04:36:23.093Z,101690.14
2023-02-06T04:37:25.463Z,101687.66
2023-02-06T04:38:27.347Z,101694.54
2023-02-06T04:39:30.717Z,101686.57
2023-02-06T04:40:32.931Z,101689.88
2023-02-06T04:41:35.007Z,101693.59
2023-02-06T04:42:37.206Z,101685.78
2023-02-06T04:43:39.459Z,101689.28
2023-02-06T04:44:41.364Z,101694.61
2023-02-06T04:45:43.924Z,101693.91
2023-02-06T04:46:46.439Z,101693.67
2023-02-06T04:47:48.431Z,101684.92
2023-02-06T04:48:50.400Z,101691.83
2023-02-06T04:49:52.588Z,101686.65
2023-02-06T04:50:54.799Z,101689.05
2023-02-06T04:51:57.012Z,101689.91
2023-02-06T04:52:59.242Z,101695.17
2023-02-06T04:54:02.178Z,101683.27
2023-02-06T04:55:04.374Z,101687.66
2023-02-06T04:56:10.456Z,101705.66
2023-02-06T04:57:12.497Z,101690.03
2023-02-06T04:58:14.581Z,101696.11
2023-02-06T04:59:16.891Z,101704.91
2023-02-06T05:00:19.486Z,101694.69
2023-02-06T05:01:22.001Z,101697.84
2023-02-06T05:02:24.422Z,101699.45
2023-02-06T05:03:27.432Z,101697.09
2023-02-06T05:04:29.334Z,101697.09
2023-02-06T05:05:31.362Z,101707.31
2023-02-06T05:06:34.678Z,101701.77
2023-02-06T05:07:36.706Z,101702.59
2023-02-06T05:08:39.032Z,101696.62
2023-02-06T05:09:40.929Z,101698.44
2023-02-06T05:10:43.285Z,101695.96
2023-02-06T05:11:45.171Z,101695.88
2023-02-06T05:12:47.050Z,101700.98
2023-02-06T05:13:49.707Z,101690.81
2023-02-06T05:14:51.573Z,101698.67
2023-02-06T05:15:54.078Z,101696.08
2023-02-06T05:16:57.456Z,101691.01
2023-02-06T05:18:00.085Z,101702.00
2023-02-06T05:19:02.098Z,101696.08
2023-02-06T05:20:05.627Z,101694.42
2023-02-06T05:21:07.626Z,101697.65
2023-02-06T05:22:09.530Z,101698.55
2023-02-06T05:23:12.276Z,101696.08
2023-02-06T05:24:14.147Z,101695.80
2023-02-06T05:25:16.334Z,101700.16
2023-02-06T05:26:19.053Z,101697.41
2023-02-06T05:27:21.052Z,101701.77
2023-02-06T05:28:23.043Z,101701.77
2023-02-06T05:29:26.691Z,101706.29
2023-02-06T05:30:29.012Z,101706.05
2023-02-06T05:31:31.016Z,101705.39
2023-02-06T05:32:33.088Z,101709.55
2023-02-06T05:33:35.173Z,101700.16
2023-02-06T05:34:37.071Z,101699.41
2023-02-06T05:35:39.751Z,101707.94
2023-02-06T05:36:41.847Z,101701.85
2023-02-06T05:37:44.201Z,101705.11
2023-02-06T05:38:46.899Z,101703.50
2023-02-06T05:39:48.807Z,101703.38
2023-02-06T05:40:51.257Z,101703.63
2023-02-06T05:41:53.664Z,101707.03
2023-02-06T05:42:56.355Z,101708.65
2023-02-06T05:43:58.400Z,101709.51
2023-02-06T05:45:00.263Z,101707.82
2023-02-06T05:46:02.404Z,101703.58
2023-02-06T05:47:04.731Z,101712.97
2023-02-06T05:48:06.616Z,101704.64
2023-02-06T05:49:08.478Z,101709.62
2023-02-06T05:50:13.084Z,101706.95
2023-02-06T05:51:15.252Z,101707.11
2023-02-06T05:52:18.407Z,101710.53
2023-02-06T05:53:20.878Z,101713.08
2023-02-06T05:54:23.264Z,101707.03
2023-02-06T05:55:25.284Z,101703.58
2023-02-06T05:56:27.646Z,101712.97
2023-02-06T05:57:29.624Z,101708.02
2023-02-06T05:58:31.525Z,101719.05
2023-02-06T05:59:33.406Z,101713.08
2023-02-06T06:00:35.401Z,101715.72
2023-02-06T06:01:37.574Z,101716.38
2023-02-06T06:02:39.684Z,101715.44
2023-02-06T06:03:41.640Z,101717.41
2023-02-06T06:04:43.657Z,101713.12
2023-02-06T06:05:46.638Z,101715.55
2023-02-06T06:06:48.915Z,101711.31
2023-02-06T06:07:51.076Z,101715.95
2023-02-06T06:08:53.543Z,101716.66
2023-02-06T06:09:56.940Z,101716.94
2023-02-06T06:11:01.814Z,101710.84
2023-02-06T06:12:03.597Z,101715.55
2023-02-06T06:13:05.685Z,101713.80
2023-02-06T06:14:07.583Z,101708.02
2023-02-06T06:15:09.448Z,101711.52
2023-02-06T06:16:12.035Z,101716.81
2023-02-06T06:17:14.742Z,101710.92
2023-02-06T06:18:17.584Z,101713.36
2023-02-06T06:19:19.742Z,101714.22
2023-02-06T06:20:22.527Z,101715.91
2023-02-06T06:21:24.448Z,101704.72
2023-02-06T06:22:26.427Z,101705.42
2023-02-06T06:23:28.856Z,101707.11
2023-02-06T06:24:30.828Z,101710.53
2023-02-06T06:25:34.638Z,101712.42
2023-02-06T06:26:37.157Z,101712.50
2023-02-06T06:27:39.107Z,101713.44
2023-02-06T06:28:41.424Z,101703.30
2023-02-06T06:29:43.439Z,101712.09
2023-02-06T06:30:47.014Z,101710.06
2023-02-06T06:31:49.165Z,101715.13
2023-02-06T06:32:51.444Z,101709.78
2023-02-06T06:33:53.345Z,101715.28
2023-02-06T06:34:55.239Z,101716.85
2023-02-06T06:35:57.750Z,101717.16
2023-02-06T06:37:00.240Z,101705.17
2023-02-06T06:38:04.554Z,101716.38
2023-02-06T06:39:06.795Z,101725.02
2023-02-06T06:40:10.776Z,101720.09
2023-02-06T06:41:13.102Z,101718.30
2023-02-06T06:42:15.011Z,101711.48
2023-02-06T06:43:17.522Z,101722.77
2023-02-06T06:44:19.794Z,101711.48
2023-02-06T06:45:21.771Z,101713.89
2023-02-06T06:46:25.145Z,101714.76
2023-02-06T06:47:29.144Z,101719.30
2023-02-06T06:48:31.906Z,101719.27
2023-02-06T06:49:35.042Z,101719.23
2023-02-06T06:50:37.484Z,101726.19
2023-02-06T06:51:39.497Z,101711.63
2023-02-06T06:52:41.560Z,101718.70
2023-02-06T06:53:43.446Z,101721.90
2023-02-06T06:54:45.346Z,101719.16
2023-02-06T06:55:47.552Z,101719.00
2023-02-06T06:56:49.880Z,101723.70
2023-02-06T06:57:52.520Z,101727.12
2023-02-06T06:58:54.518Z,101732.45
2023-02-06T06:59:56.514Z,101730.77
2023-02-06T07:00:59.500Z,101717.87
2023-02-06T07:02:01.890Z,101722.08
2023-02-06T07:03:03.887Z,101731.52
2023-02-06T07:04:05.870Z,101737.58
2023-02-06T07:05:08.792Z,101732.53
2023-02-06T07:06:11.207Z,101734.12
2023-02-06T07:07:13.221Z,101735.95
2023-02-06T07:08:15.219Z,101740.17
2023-02-06T07:09:17.209Z,101679.09
2023-02-06T07:10:20.203Z,101728.64
2023-02-06T07:11:22.205Z,101727.78
2023-02-06T07:12:24.913Z,101728.67
2023-02-06T07:13:26.941Z,101733.91
2023-02-06T07:14:29.104Z,101727.09
2023-02-06T07:15:31.305Z,101741.44
2023-02-06T07:16:33.594Z,101745.22
2023-02-06T07:17:35.778Z,101727.88
2023-02-06T07:18:38.073Z,101734.91
2023-02-06T07:19:39.950Z,101737.50
2023-02-06T07:20:42.486Z,101733.88
2023-02-06T07:21:44.345Z,101738.23
2023-02-06T07:22:47.062Z,101741.03
2023-02-06T07:23:48.997Z,101742.52
2023-02-06T07:24:54.427Z,101738.19
2023-02-06T07:25:56.503Z,101741.76
2023-02-06T07:26:58.730Z,101745.66
2023-02-06T07:28:00.810Z,101744.25
2023-02-06T07:29:03.333Z,101755.39
2023-02-06T07:30:06.710Z,101751.74
2023-02-06T07:31:09.388Z,101744.42
2023-02-06T07:32:11.489Z,101745.15
2023-02-06T07:33:13.351Z,101750.55
2023-02-06T07:34:15.229Z,101738.55
2023-02-06T07:35:21.802Z,101747.37
2023-02-06T07:36:24.033Z,101749.09
2023-02-06T07:37:26.058Z,101744.80
2023-02-06T07:38:27.940Z,101746.53
2023-02-06T07:39:29.949Z,101758.16
2023-02-06T07:40:43.226Z,101749.40
2023-02-06T07:41:35.945Z,101753.00
2023-02-06T07:42:39.652Z,101751.45
2023-02-06T07:43:41.559Z,101740.86
2023-02-06T07:44:43.664Z,101744.84
2023-02-06T07:45:46.661Z,101744.50
2023-02-06T07:46:49.349Z,101742.17
2023-02-06T07:47:51.260Z,101748.06
2023-02-06T07:48:54.030Z,101750.73
2023-02-06T07:49:56.012Z,101748.86
2023-02-06T07:51:04.027Z,101745.29
2023-02-06T07:52:05.943Z,101750.93
2023-02-06T07:53:08.225Z,101747.23
2023-02-06T07:54:12.536Z,101754.22
2023-02-06T07:55:14.813Z,101755.30
2023-02-06T07:56:19.437Z,101753.80
2023-02-06T09:55:38.406Z,101754.09
2023-02-06T09:56:56.892Z,101756.27
2023-02-06T09:58:08.410Z,101753.64
2023-02-06T09:59:23.754Z,101750.88
2023-02-06T10:00:49.001Z,101749.05
2023-02-06T10:02:20.041Z,101758.45
2023-02-06T10:03:34.928Z,101757.59
2023-02-06T10:04:58.574Z,101749.73
2023-02-06T10:06:19.784Z,101751.37
2023-02-06T10:07:43.008Z,101742.48
2023-02-06T10:08:54.811Z,101744.31
2023-02-06T10:10:07.465Z,101743.77
2023-02-06T10:11:30.048Z,101737.67
2023-02-06T10:12:38.811Z,101726.52
2023-02-06T10:13:47.311Z,101733.18
2023-02-06T10:15:02.187Z,101740.11
2023-02-06T10:16:08.817Z,101735.59
2023-02-06T10:17:15.221Z,101736.34
2023-02-06T10:18:35.429Z,101740.02
2023-02-06T10:20:08.539Z,101741.73
2023-02-06T10:21:23.133Z,101737.36
2023-02-06T10:22:51.492Z,101731.06
2023-02-06T10:24:11.815Z,101740.45
2023-02-06T10:25:26.351Z,101731.81
2023-02-06T10:26:29.019Z,101724.74
2023-02-06T10:27:34.581Z,101726.56
2023-02-06T10:28:36.839Z,101731.87
2023-02-06T10:29:41.281Z,101730.44
2023-02-06T10:31:07.396Z,101727.41
2023-02-06T10:32:35.896Z,101735.06
2023-02-06T10:34:01.190Z,101727.05
2023-02-06T10:35:14.329Z,101729.22
2023-02-06T10:36:35.431Z,101727.55
2023-02-06T10:37:54.590Z,101730.95
2023-02-06T10:39:09.610Z,101733.41
2023-02-06T10:40:27.680Z,101728.89
2023-02-06T10:41:36.466Z,101734.66
2023-02-06T10:42:47.964Z,101730.92
2023-02-06T10:43:54.486Z,101730.98
2023-02-06T10:45:20.179Z,101735.06
2023-02-06T10:46:39.024Z,101739.42
2023-02-06T10:47:57.111Z,101730.22
2023-02-06T10:49:05.995Z,101730.95
2023-02-06T10:50:36.367Z,101736.16
2023-02-06T10:51:43.195Z,101737.83
2023-02-06T10:52:46.790Z,101735.11
2023-02-06T10:53:52.524Z,101731.93
2023-02-06T10:54:57.172Z,101731.00
2023-02-06T10:56:02.886Z,101732.06
2023-02-06T10:57:17.561Z,101729.67
2023-02-06T10:58:32.368Z,101738.92
2023-02-06T10:59:38.181Z,101733.55
2023-02-06T11:00:43.432Z,101740.45
2023-02-06T11:01:48.354Z,101731.87
2023-02-06T11:03:06.232Z,101733.60
2023-02-06T11:04:23.181Z,101733.55
2023-02-06T11:05:28.009Z,101735.06
2023-02-06T11:06:32.068Z,101728.46
2023-02-06T11:07:37.855Z,101730.70
2023-02-06T11:08:45.388Z,101727.98
2023-02-06T11:09:47.615Z,101735.66
2023-02-06T11:10:50.112Z,101739.33
2023-02-06T11:11:54.447Z,101729.16
2023-02-06T11:14:29.676Z,101735.48
2023-02-06T11:15:35.961Z,101736.73
2023-02-06T11:16:39.975Z,101735.92
2023-02-06T11:17:44.344Z,101739.62
2023-02-06T11:18:48.991Z,101741.27
2023-02-06T11:19:52.526Z,101741.30
2023-02-06T11:20:55.894Z,101735.69
2023-02-06T11:22:13.507Z,101736.02
2023-02-06T11:23:25.035Z,101740.52
2023-02-06T11:24:27.049Z,101742.63
2023-02-06T11:25:31.478Z,101745.87
2023-02-06T11:26:37.454Z,101745.97
2023-02-06T11:27:43.537Z,101733.95
2023-02-06T11:28:55.014Z,101741.84
2023-02-06T11:30:00.738Z,101748.59
2023-02-06T11:31:06.345Z,101748.92
2023-02-06T11:32:12.375Z,101753.86
2023-02-06T11:33:51.017Z,101742.00
2023-02-06T11:34:59.647Z,101751.20
2023-02-06T11:36:02.682Z,101736.94
2023-02-06T11:37:07.755Z,101747.00
2023-02-06T11:38:21.666Z,101749.77
2023-02-06T11:39:30.450Z,101740.17
2023-02-06T11:40:33.283Z,101747.07
2023-02-06T11:41:35.253Z,101744.73
2023-02-06T11:42:37.238Z,101739.59
2023-02-06T11:43:47.662Z,101740.49
2023-02-06T11:44:50.466Z,101754.95
2023-02-06T11:46:13.086Z,101747.55
2023-02-06T11:47:37.709Z,101743.27
2023-02-06T11:48:49.089Z,101747.58
2023-02-06T11:49:51.138Z,101740.59
2023-02-06T11:50:54.281Z,101740.43
2023-02-06T11:51:59.308Z,101740.34
2023-02-06T11:53:12.899Z,101738.73
2023-02-06T11:54:26.488Z,101745.66
2023-02-06T11:55:31.417Z,101746.23
2023-02-06T11:56:35.014Z,101744.44
2023-02-06T11:57:37.015Z,101747.73
2023-02-06T11:58:39.000Z,101746.70
2023-02-06T11:59:44.653Z,101744.38
2023-02-06T12:00:56.614Z,101739.84
2023-02-06T12:02:00.478Z,101740.08
2023-02-06T12:03:03.808Z,101738.22
2023-02-06T12:04:09.609Z,101736.28
2023-02-06T12:05:15.120Z,101737.12
2023-02-06T12:06:29.917Z,101734.22
2023-02-06T12:07:51.107Z,101739.48
2023-02-06T12:08:56.480Z,101741.20
2023-02-06T12:09:59.202Z,101746.73
2023-02-06T12:11:05.113Z,101744.08
2023-02-06T12:12:35.637Z,101745.17
2023-02-06T12:13:41.387Z,101741.91
2023-02-06T12:16:31.324Z,101744.44
2023-02-06T12:17:36.600Z,101735.42
2023-02-06T12:18:42.077Z,101730.36
2023-02-06T12:19:47.858Z,101732.16
2023-02-06T12:20:59.791Z,101735.42
2023-02-06T12:22:11.461Z,101724.97
2023-02-06T12:23:23.328Z,101723.47
2023-02-06T12:24:41.358Z,101726.13
2023-02-06T12:25:47.236Z,101729.63
2023-02-06T12:26:50.253Z,101732.28
2023-02-06T12:27:59.127Z,101733.09
2023-02-06T12:30:38.345Z,101725.98
2023-02-06T12:31:44.930Z,101737.55
2023-02-06T12:32:50.764Z,101736.03
2023-02-06T12:33:56.650Z,101735.30
2023-02-06T12:35:01.574Z,101739.31
2023-02-06T12:36:06.818Z,101738.57
2023-02-06T12:37:32.325Z,101734.05
2023-02-06T12:38:54.893Z,101736.55
2023-02-06T12:39:59.339Z,101735.91
2023-02-06T12:41:20.477Z,101729.39
2023-02-06T12:42:35.676Z,101733.56
2023-02-06T12:43:40.972Z,101731.61
2023-02-06T12:44:49.566Z,101731.70
2023-02-06T12:45:58.256Z,101734.34
2023-02-06T12:47:06.937Z,101727.47
2023-02-06T12:48:25.065Z,101724.13
2023-02-06T12:49:30.786Z,101721.83
2023-02-06T12:50:39.558Z,101722.31
2023-02-06T12:51:45.262Z,101730.38
2023-02-06T12:53:02.550Z,101722.46
2023-02-06T12:55:24.887Z,101720.94
2023-02-06T12:56:40.040Z,101717.76
2023-02-06T12:57:44.286Z,101730.42
2023-02-06T13:00:18.126Z,101714.42
2023-02-06T13:01:30.633Z,101721.25
2023-02-06T13:02:57.410Z,101716.89
2023-02-06T13:04:03.141Z,101715.13
2023-02-06T13:05:20.673Z,101711.64
2023-02-06T13:06:44.787Z,101715.13
2023-02-06T13:07:49.634Z,101716.83
2023-02-06T13:09:01.616Z,101709.04
2023-02-06T13:10:06.737Z,101711.61
2023-02-06T13:12:27.884Z,101700.35
2023-02-06T13:13:36.353Z,101707.22
2023-02-06T13:14:44.588Z,101712.47
2023-02-06T13:15:50.340Z,101703.78
2023-02-06T13:16:59.219Z,101704.59
2023-02-06T13:18:01.380Z,101704.59
2023-02-06T13:19:03.772Z,101711.64
2023-02-06T13:20:11.893Z,101700.50
2023-02-06T13:21:30.059Z,101701.49
2023-02-06T13:22:47.488Z,101702.88
2023-02-06T13:23:53.207Z,101698.74
2023-02-06T13:24:57.494Z,101697.07
2023-02-06T13:25:59.431Z,101700.45
2023-02-06T13:28:23.201Z,101693.96
2023-02-06T13:29:37.260Z,101692.95
2023-02-06T13:30:43.403Z,101699.94
2023-02-06T13:31:46.842Z,101701.34
2023-02-06T13:32:50.478Z,101693.23
2023-02-06T13:33:59.261Z,101698.59
2023-02-06T13:35:08.414Z,101695.98
2023-02-06T13:36:16.839Z,101699.36
2023-02-06T13:37:40.479Z,101701.98
2023-02-06T13:38:42.740Z,101709.48
2023-02-06T13:39:50.432Z,101705.13
2023-02-06T13:41:14.192Z,101714.58
2023-02-06T13:42:41.567Z,101714.78
2023-02-06T13:44:03.212Z,101708.42
2023-02-06T13:45:08.080Z,101712.95
2023-02-06T13:46:14.823Z,101716.88
2023-02-06T13:47:45.423Z,101719.34
2023-02-06T13:49:23.416Z,101724.45
2023-02-06T13:50:35.285Z,101715.98
2023-02-06T13:51:43.546Z,101714.11
2023-02-06T13:53:01.635Z,101717.50
2023-02-06T13:54:36.227Z,101711.48
2023-02-06T13:56:02.823Z,101716.67
2023-02-06T13:57:27.691Z,101708.61
2023-02-06T13:58:48.824Z,101717.04
2023-02-06T14:00:04.271Z,101718.98
2023-02-06T14:01:22.791Z,101719.85
2023-02-06T14:02:28.532Z,101722.48
2023-02-06T14:03:34.124Z,101730.16
2023-02-06T14:04:38.132Z,101728.17
2023-02-06T14:05:55.712Z,101727.56
2023-02-06T14:07:10.530Z,101731.56
2023-02-06T14:09:53.522Z,101722.63
2023-02-06T14:11:06.053Z,101731.81
2023-02-06T14:12:23.914Z,101724.03
2023-02-06T14:13:29.575Z,101740.28
2023-02-06T14:14:53.528Z,101735.88
2023-02-06T14:16:22.863Z,101738.33
2023-02-06T14:17:37.441Z,101737.39
2023-02-06T14:19:03.303Z,101735.55
2023-02-06T14:21:29.620Z,101732.31
2023-02-06T14:22:44.977Z,101730.40
2023-02-06T14:24:02.483Z,101732.09
2023-02-06T14:25:24.635Z,101731.33
2023-02-06T14:26:49.138Z,101733.92
2023-02-06T14:28:09.828Z,101734.72
2023-02-06T14:29:18.421Z,101732.99
2023-02-06T14:30:27.333Z,101736.52
2023-02-06T14:31:48.456Z,101735.58
2023-02-06T14:33:13.603Z,101735.73
2023-02-06T14:34:31.522Z,101740.17
2023-02-06T14:35:43.237Z,101742.77
2023-02-06T14:37:14.184Z,101745.02
2023-02-06T14:38:43.673Z,101748.48
2023-02-06T14:39:50.156Z,101750.01
2023-02-06T14:40:55.762Z,101752.52
2023-02-06T14:41:58.106Z,101754.29
2023-02-06T14:43:06.801Z,101755.82
2023-02-06T14:44:13.610Z,101748.95
2023-02-06T14:45:24.246Z,101760.34
2023-02-06T14:46:28.220Z,101758.69
2023-02-06T14:47:33.872Z,101764.58
2023-02-06T14:48:45.611Z,101760.38
2023-02-06T14:49:48.747Z,101760.18
2023-02-06T14:50:56.428Z,101761.44
2023-02-06T14:52:00.289Z,101770.00
2023-02-06T14:54:38.221Z,101775.46
2023-02-06T14:55:42.593Z,101775.16
2023-02-06T14:56:44.823Z,101766.98
2023-02-06T14:57:46.703Z,101774.91
2023-02-06T14:58:48.811Z,101776.72
2023-02-06T14:59:54.181Z,101780.34
2023-02-06T15:01:03.620Z,101775.23
2023-02-06T15:02:15.841Z,101775.34
2023-02-06T15:03:21.899Z,101783.17